sensor_id;sensor_type;location;lat;lon;timestamp;pressure;altitude;pressure_sealevel;temperature;humidity
49841;BME280;35738;49.890;5.930;2023-04-27T00:02:41;95921.72;;;2.11;100.00
49841;BME280;35738;49.890;5.930;2023-04-27T00:05:23;95917.63;;;2.19;100.00
49841;BME280;35738;49.890;5.930;2023-04-27T00:08:11;95911.41;;;2.29;100.00
49841;BME280;35738;49.890;5.930;2023-04-27T00:10:51;95920.06;;;2.36;100.00
49841;BME280;35738;49.890;5.930;2023-04-27T00:13:25;95916.78;;;2.39;100.00
49841;BME280;35738;49.890;5.930;2023-04-27T00:16:01;95919.50;;;2.39;100.00
49841;BME280;35738;49.890;5.930;2023-04-27T00:18:32;95913.25;;;2.38;100.00
49841;BME280;35738;49.890;5.930;2023-04-27T00:21:09;95918.97;;;2.37;100.00
49841;BME280;35738;49.890;5.930;2023-04-27T00:23:36;95918.97;;;2.37;100.00
49841;BME280;35738;49.890;5.930;2023-04-27T00:26:05;95922.25;;;2.29;100.00
49841;BME280;35738;49.890;5.930;2023-04-27T00:28:31;95931.47;;;2.17;100.00
49841;BME280;35738;49.890;5.930;2023-04-27T00:31:04;95935.00;;;2.13;100.00
49841;BME280;35738;49.890;5.930;2023-04-27T00:33:34;95923.63;;;2.11;100.00
49841;BME280;35738;49.890;5.930;2023-04-27T00:36:12;95923.34;;;2.12;100.00
49841;BME280;35738;49.890;5.930;2023-04-27T00:38:39;95922.81;;;2.15;100.00
49841;BME280;35738;49.890;5.930;2023-04-27T00:41:06;95908.69;;;2.18;100.00
49841;BME280;35738;49.890;5.930;2023-04-27T00:43:45;95907.59;;;2.19;100.00
49841;BME280;35738;49.890;5.930;2023-04-27T00:46:19;95908.41;;;2.15;100.00
49841;BME280;35738;49.890;5.930;2023-04-27T00:48:51;95900.28;;;2.15;100.00
49841;BME280;35738;49.890;5.930;2023-04-27T00:51:45;95907.63;;;2.14;100.00
49841;BME280;35738;49.890;5.930;2023-04-27T00:54:25;95901.09;;;2.15;100.00
49841;BME280;35738;49.890;5.930;2023-04-27T00:56:52;95902.19;;;2.14;100.00
49841;BME280;35738;49.890;5.930;2023-04-27T00:59:34;95899.47;;;2.14;100.00
49841;BME280;35738;49.890;5.930;2023-04-27T01:02:01;95890.78;;;2.12;100.00
49841;BME280;35738;49.890;5.930;2023-04-27T01:04:50;95902.72;;;2.16;100.00
49841;BME280;35738;49.890;5.930;2023-04-27T01:07:26;95904.34;;;2.17;100.00
49841;BME280;35738;49.890;5.930;2023-04-27T01:10:07;95900.81;;;2.17;100.00
49841;BME280;35738;49.890;5.930;2023-04-27T01:12:39;95903.81;;;2.15;100.00
49841;BME280;35738;49.890;5.930;2023-04-27T01:15:30;95908.16;;;2.11;100.00
49841;BME280;35738;49.890;5.930;2023-04-27T01:18:11;95910.63;;;2.08;100.00
49841;BME280;35738;49.890;5.930;2023-04-27T01:20:38;95912.50;;;2.07;100.00
49841;BME280;35738;49.890;5.930;2023-04-27T01:23:15;95904.38;;;2.07;100.00
49841;BME280;35738;49.890;5.930;2023-04-27T01:25:46;95910.34;;;2.04;100.00
49841;BME280;35738;49.890;5.930;2023-04-27T01:28:13;95911.44;;;2.03;100.00
49841;BME280;35738;49.890;5.930;2023-04-27T01:30:42;95907.09;;;1.97;100.00
49841;BME280;35738;49.890;5.930;2023-04-27T01:33:11;95916.88;;;1.93;100.00
49841;BME280;35738;49.890;5.930;2023-04-27T01:35:47;95909.56;;;1.88;100.00
49841;BME280;35738;49.890;5.930;2023-04-27T01:38:15;95909.56;;;1.88;100.00
49841;BME280;35738;49.890;5.930;2023-04-27T01:40:45;95908.50;;;1.84;100.00
49841;BME280;35738;49.890;5.930;2023-04-27T01:43:12;95910.13;;;1.85;100.00
49841;BME280;35738;49.890;5.930;2023-04-27T01:45:44;95910.38;;;1.84;100.00
49841;BME280;35738;49.890;5.930;2023-04-27T01:48:14;95905.78;;;1.84;100.00
49841;BME280;35738;49.890;5.930;2023-04-27T01:50:50;95908.75;;;1.83;100.00
49841;BME280;35738;49.890;5.930;2023-04-27T01:53:29;95906.06;;;1.78;100.00
49841;BME280;35738;49.890;5.930;2023-04-27T01:55:59;95913.66;;;1.76;100.00
49841;BME280;35738;49.890;5.930;2023-04-27T01:58:33;95904.44;;;1.72;100.00
49841;BME280;35738;49.890;5.930;2023-04-27T02:01:18;95906.63;;;1.65;100.00
49841;BME280;35738;49.890;5.930;2023-04-27T02:03:54;95892.25;;;1.59;100.00
49841;BME280;35738;49.890;5.930;2023-04-27T02:06:21;95895.78;;;1.54;100.00
49841;BME280;35738;49.890;5.930;2023-04-27T02:09:06;95897.41;;;1.50;100.00
49841;BME280;35738;49.890;5.930;2023-04-27T02:11:45;95897.38;;;1.45;100.00
49841;BME280;35738;49.890;5.930;2023-04-27T02:14:25;95910.66;;;1.47;100.00
49841;BME280;35738;49.890;5.930;2023-04-27T02:16:57;95908.22;;;1.45;100.00
49841;BME280;35738;49.890;5.930;2023-04-27T02:19:29;95908.22;;;1.45;100.00
49841;BME280;35738;49.890;5.930;2023-04-27T02:22:02;95904.97;;;1.43;100.00
49841;BME280;35738;49.890;5.930;2023-04-27T02:24:38;95908.75;;;1.42;100.00
49841;BME280;35738;49.890;5.930;2023-04-27T02:27:08;95901.72;;;1.41;100.00
49841;BME280;35738;49.890;5.930;2023-04-27T02:29:39;95909.84;;;1.41;100.00
49841;BME280;35738;49.890;5.930;2023-04-27T02:32:21;95914.19;;;1.37;100.00
49841;BME280;35738;49.890;5.930;2023-04-27T02:35:16;95910.13;;;1.30;100.00
49841;BME280;35738;49.890;5.930;2023-04-27T02:37:47;95907.94;;;1.26;100.00
49841;BME280;35738;49.890;5.930;2023-04-27T02:40:14;95908.22;;;1.25;100.00
49841;BME280;35738;49.890;5.930;2023-04-27T02:42:43;95906.31;;;1.20;100.00
49841;BME280;35738;49.890;5.930;2023-04-27T02:45:36;95909.03;;;1.15;100.00
49841;BME280;35738;49.890;5.930;2023-04-27T02:48:12;95910.91;;;1.10;100.00
49841;BME280;35738;49.890;5.930;2023-04-27T02:50:54;95900.88;;;1.10;100.00
49841;BME280;35738;49.890;5.930;2023-04-27T02:53:22;95902.50;;;1.06;100.00
49841;BME280;35738;49.890;5.930;2023-04-27T02:55:52;95903.84;;;1.04;100.00
49841;BME280;35738;49.890;5.930;2023-04-27T02:58:23;95894.66;;;1.10;100.00
49841;BME280;35738;49.890;5.930;2023-04-27T03:00:55;95895.75;;;1.14;100.00
49841;BME280;35738;49.890;5.930;2023-04-27T03:03:25;95893.56;;;1.06;100.00
49841;BME280;35738;49.890;5.930;2023-04-27T03:05:52;95899.53;;;1.03;100.00
49841;BME280;35738;49.890;5.930;2023-04-27T03:08:21;95887.59;;;0.99;100.00
49841;BME280;35738;49.890;5.930;2023-04-27T03:10:59;95887.88;;;0.97;100.00
49841;BME280;35738;49.890;5.930;2023-04-27T03:13:25;95897.91;;;1.02;100.00
49841;BME280;35738;49.890;5.930;2023-04-27T03:15:53;95902.22;;;1.03;100.00
49841;BME280;35738;49.890;5.930;2023-04-27T03:18:19;95889.75;;;0.97;100.00
49841;BME280;35738;49.890;5.930;2023-04-27T03:20:46;95892.47;;;0.86;100.00
49841;BME280;35738;49.890;5.930;2023-04-27T03:23:13;95896.47;;;0.74;100.00
49841;BME280;35738;49.890;5.930;2023-04-27T03:25:39;95896.69;;;0.57;100.00
49841;BME280;35738;49.890;5.930;2023-04-27T03:28:06;95895.00;;;0.41;100.00
49841;BME280;35738;49.890;5.930;2023-04-27T03:30:35;95898.47;;;0.31;100.00
49841;BME280;35738;49.890;5.930;2023-04-27T03:33:03;95895.47;;;0.22;100.00
49841;BME280;35738;49.890;5.930;2023-04-27T03:36:08;95906.25;;;0.12;100.00
49841;BME280;35738;49.890;5.930;2023-04-27T03:39:13;95905.06;;;-0.02;100.00
49841;BME280;35738;49.890;5.930;2023-04-27T03:41:40;95912.31;;;-0.08;100.00
49841;BME280;35738;49.890;5.930;2023-04-27T03:44:08;95900.69;;;-0.08;100.00
49841;BME280;35738;49.890;5.930;2023-04-27T03:46:37;95914.25;;;-0.03;100.00
49841;BME280;35738;49.890;5.930;2023-04-27T03:49:07;95904.59;;;0.06;100.00
49841;BME280;35738;49.890;5.930;2023-04-27T03:51:34;95895.97;;;0.14;100.00
49841;BME280;35738;49.890;5.930;2023-04-27T03:54:00;95898.19;;;0.27;100.00
49841;BME280;35738;49.890;5.930;2023-04-27T03:56:27;95895.81;;;0.36;100.00
49841;BME280;35738;49.890;5.930;2023-04-27T03:58:53;95884.75;;;0.48;100.00
49841;BME280;35738;49.890;5.930;2023-04-27T04:01:20;95894.50;;;0.54;100.00
49841;BME280;35738;49.890;5.930;2023-04-27T04:03:47;95886.41;;;0.59;100.00
49841;BME280;35738;49.890;5.930;2023-04-27T04:06:15;95881.81;;;0.59;100.00
49841;BME280;35738;49.890;5.930;2023-04-27T04:08:45;95888.31;;;0.63;100.00
49841;BME280;35738;49.890;5.930;2023-04-27T04:11:14;95882.91;;;0.74;100.00
49841;BME280;35738;49.890;5.930;2023-04-27T04:13:42;95886.44;;;0.74;100.00
49841;BME280;35738;49.890;5.930;2023-04-27T04:16:09;95881.59;;;0.76;100.00
49841;BME280;35738;49.890;5.930;2023-04-27T04:18:38;95890.81;;;0.75;100.00
49841;BME280;35738;49.890;5.930;2023-04-27T04:21:04;95889.13;;;0.69;100.00
49841;BME280;35738;49.890;5.930;2023-04-27T04:23:31;95888.59;;;0.67;100.00
49841;BME280;35738;49.890;5.930;2023-04-27T04:25:59;95894.03;;;0.72;100.00
49841;BME280;35738;49.890;5.930;2023-04-27T04:29:04;95896.22;;;0.75;100.00
49841;BME280;35738;49.890;5.930;2023-04-27T04:44:21;95902.19;;;0.77;100.00
49841;BME280;35738;49.890;5.930;2023-04-27T04:46:56;95903.81;;;0.83;100.00
49841;BME280;35738;49.890;5.930;2023-04-27T04:49:23;95915.19;;;0.80;100.00
49841;BME280;35738;49.890;5.930;2023-04-27T04:51:49;95918.44;;;0.82;100.00
49841;BME280;35738;49.890;5.930;2023-04-27T04:54:16;95922.50;;;0.85;100.00
49841;BME280;35738;49.890;5.930;2023-04-27T04:56:43;95915.75;;;0.87;100.00
49841;BME280;35738;49.890;5.930;2023-04-27T04:59:11;95920.91;;;0.94;100.00
49841;BME280;35738;49.890;5.930;2023-04-27T05:01:39;95924.16;;;1.01;100.00
49841;BME280;35738;49.890;5.930;2023-04-27T05:04:06;95926.88;;;1.06;100.00
49841;BME280;35738;49.890;5.930;2023-04-27T05:06:33;95928.25;;;1.19;100.00
49841;BME280;35738;49.890;5.930;2023-04-27T05:08:59;95932.06;;;1.33;100.00
49841;BME280;35738;49.890;5.930;2023-04-27T05:11:29;95923.66;;;1.40;100.00
49841;BME280;35738;49.890;5.930;2023-04-27T05:13:56;95928.81;;;1.46;100.00
49841;BME280;35738;49.890;5.930;2023-04-27T05:16:22;95930.47;;;1.52;100.00
49841;BME280;35738;49.890;5.930;2023-04-27T05:18:57;95930.47;;;1.57;100.00
49841;BME280;35738;49.890;5.930;2023-04-27T05:21:53;95929.34;;;1.94;100.00
49841;BME280;35738;49.890;5.930;2023-04-27T05:24:20;95927.28;;;2.66;100.00
49841;BME280;35738;49.890;5.930;2023-04-27T05:26:47;95917.72;;;3.28;100.00
49841;BME280;35738;49.890;5.930;2023-04-27T05:29:13;95911.56;;;3.51;100.00
49841;BME280;35738;49.890;5.930;2023-04-27T05:31:41;95901.94;;;3.64;100.00
49841;BME280;35738;49.890;5.930;2023-04-27T05:34:08;95902.41;;;3.76;100.00
49841;BME280;35738;49.890;5.930;2023-04-27T05:36:35;95900.84;;;3.99;100.00
49841;BME280;35738;49.890;5.930;2023-04-27T05:39:02;95905.72;;;3.68;100.00
49841;BME280;35738;49.890;5.930;2023-04-27T05:41:29;95909.63;;;3.91;100.00
49841;BME280;35738;49.890;5.930;2023-04-27T05:43:56;95905.16;;;4.29;100.00
49841;BME280;35738;49.890;5.930;2023-04-27T05:46:22;95896.75;;;4.25;100.00
49841;BME280;35738;49.890;5.930;2023-04-27T05:48:49;95895.41;;;4.23;100.00
49841;BME280;35738;49.890;5.930;2023-04-27T05:51:16;95898.34;;;4.55;100.00
49841;BME280;35738;49.890;5.930;2023-04-27T05:53:43;95906.00;;;4.96;100.00
49841;BME280;35738;49.890;5.930;2023-04-27T05:56:09;95901.72;;;4.90;100.00
49841;BME280;35738;49.890;5.930;2023-04-27T05:58:37;95906.00;;;5.15;100.00
49841;BME280;35738;49.890;5.930;2023-04-27T06:01:03;95910.28;;;4.59;100.00
49841;BME280;35738;49.890;5.930;2023-04-27T06:03:30;95910.72;;;4.19;100.00
49841;BME280;35738;49.890;5.930;2023-04-27T06:05:59;95910.09;;;4.74;100.00
49841;BME280;35738;49.890;5.930;2023-04-27T06:08:33;95913.97;;;5.11;100.00
49841;BME280;35738;49.890;5.930;2023-04-27T06:11:02;95912.56;;;5.70;100.00
49841;BME280;35738;49.890;5.930;2023-04-27T06:13:30;95925.78;;;5.44;100.00
49841;BME280;35738;49.890;5.930;2023-04-27T06:15:57;95914.97;;;5.20;100.00
49841;BME280;35738;49.890;5.930;2023-04-27T06:18:24;95908.84;;;5.47;100.00
49841;BME280;35738;49.890;5.930;2023-04-27T06:20:51;95911.66;;;5.23;100.00
49841;BME280;35738;49.890;5.930;2023-04-27T06:23:17;95902.53;;;5.09;100.00
49841;BME280;35738;49.890;5.930;2023-04-27T06:25:44;95901.97;;;5.12;100.00
49841;BME280;35738;49.890;5.930;2023-04-27T06:28:10;95901.31;;;5.20;100.00
49841;BME280;35738;49.890;5.930;2023-04-27T06:30:37;95904.84;;;5.58;100.00
49841;BME280;35738;49.890;5.930;2023-04-27T06:33:05;95913.78;;;5.26;100.00
49841;BME280;35738;49.890;5.930;2023-04-27T06:35:31;95919.50;;;5.06;100.00
49841;BME280;35738;49.890;5.930;2023-04-27T06:37:58;95909.91;;;5.08;100.00
49841;BME280;35738;49.890;5.930;2023-04-27T06:40:25;95919.00;;;5.41;100.00
49841;BME280;35738;49.890;5.930;2023-04-27T06:42:55;95917.66;;;5.58;100.00
49841;BME280;35738;49.890;5.930;2023-04-27T06:45:32;95917.94;;;5.19;100.00
49841;BME280;35738;49.890;5.930;2023-04-27T06:48:06;95923.13;;;5.58;100.00
49841;BME280;35738;49.890;5.930;2023-04-27T06:50:34;95925.34;;;5.37;100.00
49841;BME280;35738;49.890;5.930;2023-04-27T06:53:03;95919.22;;;5.45;100.00
49841;BME280;35738;49.890;5.930;2023-04-27T06:55:29;95918.97;;;5.98;100.00
49841;BME280;35738;49.890;5.930;2023-04-27T06:58:04;95917.72;;;5.90;100.00
49841;BME280;35738;49.890;5.930;2023-04-27T07:11:36;95926.75;;;5.34;100.00
49841;BME280;35738;49.890;5.930;2023-04-27T07:14:02;95928.56;;;5.77;100.00
49841;BME280;35738;49.890;5.930;2023-04-27T07:16:29;95929.00;;;6.02;100.00
49841;BME280;35738;49.890;5.930;2023-04-27T07:18:55;95922.81;;;5.97;100.00
49841;BME280;35738;49.890;5.930;2023-04-27T07:21:22;95923.88;;;6.15;100.00
49841;BME280;35738;49.890;5.930;2023-04-27T07:23:48;95929.06;;;6.30;100.00
49841;BME280;35738;49.890;5.930;2023-04-27T07:26:15;95927.47;;;5.96;100.00
49841;BME280;35738;49.890;5.930;2023-04-27T07:28:42;95923.03;;;6.00;100.00
49841;BME280;35738;49.890;5.930;2023-04-27T07:31:09;95925.47;;;6.02;100.00
49841;BME280;35738;49.890;5.930;2023-04-27T07:33:36;95927.44;;;5.78;100.00
49841;BME280;35738;49.890;5.930;2023-04-27T07:36:02;95929.28;;;5.82;100.00
49841;BME280;35738;49.890;5.930;2023-04-27T07:38:30;95925.88;;;6.09;100.00
49841;BME280;35738;49.890;5.930;2023-04-27T07:40:57;95923.41;;;6.40;100.00
49841;BME280;35738;49.890;5.930;2023-04-27T07:43:27;95919.44;;;6.19;100.00
49841;BME280;35738;49.890;5.930;2023-04-27T07:45:54;95914.94;;;6.55;100.00
49841;BME280;35738;49.890;5.930;2023-04-27T07:48:23;95917.09;;;6.72;100.00
49841;BME280;35738;49.890;5.930;2023-04-27T07:50:51;95906.84;;;6.64;100.00
49841;BME280;35738;49.890;5.930;2023-04-27T07:53:18;95909.25;;;6.65;100.00
49841;BME280;35738;49.890;5.930;2023-04-27T07:55:45;95904.91;;;6.64;100.00
49841;BME280;35738;49.890;5.930;2023-04-27T07:58:12;95898.34;;;6.93;100.00
49841;BME280;35738;49.890;5.930;2023-04-27T08:00:39;95901.75;;;7.12;100.00
49841;BME280;35738;49.890;5.930;2023-04-27T08:03:06;95901.84;;;7.07;100.00
49841;BME280;35738;49.890;5.930;2023-04-27T08:05:34;95904.47;;;7.12;100.00
49841;BME280;35738;49.890;5.930;2023-04-27T08:08:01;95910.56;;;7.09;100.00
49841;BME280;35738;49.890;5.930;2023-04-27T08:10:28;95899.56;;;7.50;100.00
49841;BME280;35738;49.890;5.930;2023-04-27T08:12:54;95900.94;;;7.61;100.00
49841;BME280;35738;49.890;5.930;2023-04-27T08:15:21;95905.25;;;7.26;100.00
49841;BME280;35738;49.890;5.930;2023-04-27T08:17:47;95895.63;;;7.65;100.00
49841;BME280;35738;49.890;5.930;2023-04-27T08:20:14;95894.78;;;7.42;100.00
49841;BME280;35738;49.890;5.930;2023-04-27T08:22:41;95898.75;;;7.94;100.00
49841;BME280;35738;49.890;5.930;2023-04-27T08:25:08;95899.13;;;8.02;100.00
49841;BME280;35738;49.890;5.930;2023-04-27T08:27:38;95894.03;;;7.64;100.00
49841;BME280;35738;49.890;5.930;2023-04-27T08:30:06;95888.53;;;8.09;100.00
49841;BME280;35738;49.890;5.930;2023-04-27T08:32:33;95894.59;;;8.50;100.00
49841;BME280;35738;49.890;5.930;2023-04-27T08:34:59;95893.88;;;8.14;100.00
49841;BME280;35738;49.890;5.930;2023-04-27T08:37:26;95880.25;;;8.22;100.00
49841;BME280;35738;49.890;5.930;2023-04-27T08:39:59;95888.53;;;8.09;100.00
49841;BME280;35738;49.890;5.930;2023-04-27T08:42:25;95892.53;;;8.25;100.00
49841;BME280;35738;49.890;5.930;2023-04-27T08:44:52;95884.34;;;8.11;100.00
49841;BME280;35738;49.890;5.930;2023-04-27T08:47:18;95887.56;;;7.82;100.00
49841;BME280;35738;49.890;5.930;2023-04-27T08:49:56;95896.25;;;8.07;100.00
49841;BME280;35738;49.890;5.930;2023-04-27T08:52:23;95901.53;;;8.48;100.00
49841;BME280;35738;49.890;5.930;2023-04-27T08:54:49;95888.66;;;8.04;100.00
49841;BME280;35738;49.890;5.930;2023-04-27T08:57:16;95901.53;;;8.03;100.00
49841;BME280;35738;49.890;5.930;2023-04-27T08:59:42;95899.03;;;8.69;100.00
49841;BME280;35738;49.890;5.930;2023-04-27T09:02:20;95896.91;;;8.97;100.00
49841;BME280;35738;49.890;5.930;2023-04-27T09:04:47;95896.28;;;9.08;100.00
49841;BME280;35738;49.890;5.930;2023-04-27T09:07:16;95893.84;;;8.98;100.00
49841;BME280;35738;49.890;5.930;2023-04-27T09:09:43;95893.56;;;9.26;100.00
49841;BME280;35738;49.890;5.930;2023-04-27T09:12:18;95895.38;;;9.47;100.00
49841;BME280;35738;49.890;5.930;2023-04-27T09:14:59;95889.19;;;9.16;100.00
49841;BME280;35738;49.890;5.930;2023-04-27T09:17:29;95892.06;;;9.02;100.00
49841;BME280;35738;49.890;5.930;2023-04-27T09:20:07;95893.41;;;9.31;100.00
49841;BME280;35738;49.890;5.930;2023-04-27T09:22:45;95888.91;;;9.43;100.00
49841;BME280;35738;49.890;5.930;2023-04-27T09:25:28;95894.06;;;9.45;100.00
49841;BME280;35738;49.890;5.930;2023-04-27T09:27:57;95893.25;;;9.36;100.00
49841;BME280;35738;49.890;5.930;2023-04-27T09:30:28;95890.97;;;9.20;100.00
49841;BME280;35738;49.890;5.930;2023-04-27T09:32:59;95892.13;;;9.54;100.00
49841;BME280;35738;49.890;5.930;2023-04-27T09:35:29;95901.00;;;9.34;100.00
49841;BME280;35738;49.890;5.930;2023-04-27T09:37:57;95893.91;;;9.33;100.00
49841;BME280;35738;49.890;5.930;2023-04-27T09:40:26;95890.03;;;9.42;100.00
49841;BME280;35738;49.890;5.930;2023-04-27T09:42:56;95895.22;;;9.78;100.00
49841;BME280;35738;49.890;5.930;2023-04-27T09:45:25;95889.38;;;10.14;100.00
49841;BME280;35738;49.890;5.930;2023-04-27T09:47:52;95889.19;;;10.19;100.00
49841;BME280;35738;49.890;5.930;2023-04-27T09:50:19;95884.81;;;10.44;100.00
49841;BME280;35738;49.890;5.930;2023-04-27T09:52:47;95880.59;;;10.38;100.00
49841;BME280;35738;49.890;5.930;2023-04-27T09:55:21;95879.03;;;10.20;100.00
49841;BME280;35738;49.890;5.930;2023-04-27T09:58:14;95897.81;;;10.01;100.00
49841;BME280;35738;49.890;5.930;2023-04-27T10:01:02;95884.38;;;10.25;100.00
49841;BME280;35738;49.890;5.930;2023-04-27T10:08:57;95867.34;;;10.49;100.00
49841;BME280;35738;49.890;5.930;2023-04-27T10:11:38;95874.88;;;10.69;100.00
49841;BME280;35738;49.890;5.930;2023-04-27T10:14:13;95864.78;;;11.11;100.00
49841;BME280;35738;49.890;5.930;2023-04-27T10:16:53;95859.22;;;10.91;100.00
49841;BME280;35738;49.890;5.930;2023-04-27T10:19:22;95864.97;;;10.77;100.00
49841;BME280;35738;49.890;5.930;2023-04-27T10:21:57;95861.53;;;10.33;100.00
49841;BME280;35738;49.890;5.930;2023-04-27T10:24:39;95858.66;;;10.21;100.00
49841;BME280;35738;49.890;5.930;2023-04-27T10:27:10;95862.69;;;10.32;100.00
49841;BME280;35738;49.890;5.930;2023-04-27T10:29:40;95873.25;;;10.68;100.00
49841;BME280;35738;49.890;5.930;2023-04-27T10:32:25;95874.59;;;10.92;100.00
49841;BME280;35738;49.890;5.930;2023-04-27T10:35:02;95861.97;;;10.91;100.00
49841;BME280;35738;49.890;5.930;2023-04-27T10:37:39;95858.34;;;10.69;100.00
49841;BME280;35738;49.890;5.930;2023-04-27T10:40:10;95855.91;;;10.21;100.00
49841;BME280;35738;49.890;5.930;2023-04-27T10:42:40;95854.47;;;10.24;100.00
49841;BME280;35738;49.890;5.930;2023-04-27T10:45:08;95859.19;;;10.61;100.00
49841;BME280;35738;49.890;5.930;2023-04-27T10:47:39;95865.16;;;11.01;100.00
49841;BME280;35738;49.890;5.930;2023-04-27T10:50:08;95862.00;;;11.41;100.00
49841;BME280;35738;49.890;5.930;2023-04-27T10:52:41;95853.47;;;11.55;100.00
49841;BME280;35738;49.890;5.930;2023-04-27T10:55:17;95857.19;;;11.80;100.00
49841;BME280;35738;49.890;5.930;2023-04-27T10:57:53;95851.25;;;11.69;100.00
49841;BME280;35738;49.890;5.930;2023-04-27T11:00:35;95845.75;;;11.69;100.00
49841;BME280;35738;49.890;5.930;2023-04-27T11:03:18;95845.03;;;11.09;100.00
49841;BME280;35738;49.890;5.930;2023-04-27T11:05:47;95846.09;;;11.46;100.00
49841;BME280;35738;49.890;5.930;2023-04-27T11:08:18;95839.72;;;11.34;100.00
49841;BME280;35738;49.890;5.930;2023-04-27T11:10:50;95838.75;;;11.71;100.00
49841;BME280;35738;49.890;5.930;2023-04-27T11:13:19;95845.88;;;11.01;100.00
49841;BME280;35738;49.890;5.930;2023-04-27T11:18:14;95843.94;;;11.02;100.00
49841;BME280;35738;49.890;5.930;2023-04-27T11:20:45;95835.34;;;11.03;100.00
49841;BME280;35738;49.890;5.930;2023-04-27T11:23:28;95824.13;;;11.38;100.00
49841;BME280;35738;49.890;5.930;2023-04-27T11:25:55;95829.50;;;11.34;100.00
49841;BME280;35738;49.890;5.930;2023-04-27T11:28:23;95828.88;;;11.70;100.00
49841;BME280;35738;49.890;5.930;2023-04-27T11:30:56;95814.31;;;11.49;100.00
49841;BME280;35738;49.890;5.930;2023-04-27T11:33:24;95819.63;;;11.96;100.00
49841;BME280;35738;49.890;5.930;2023-04-27T11:35:51;95815.91;;;12.25;100.00
49841;BME280;35738;49.890;5.930;2023-04-27T11:38:18;95819.03;;;12.48;100.00
49841;BME280;35738;49.890;5.930;2023-04-27T11:40:46;95810.94;;;12.63;100.00
49841;BME280;35738;49.890;5.930;2023-04-27T11:43:13;95816.16;;;12.32;100.00
49841;BME280;35738;49.890;5.930;2023-04-27T11:45:43;95815.00;;;12.45;100.00
49841;BME280;35738;49.890;5.930;2023-04-27T11:48:15;95810.44;;;13.10;100.00
49841;BME280;35738;49.890;5.930;2023-04-27T11:50:46;95808.72;;;13.30;100.00
49841;BME280;35738;49.890;5.930;2023-04-27T11:53:13;95802.94;;;13.47;100.00
49841;BME280;35738;49.890;5.930;2023-04-27T11:55:43;95806.72;;;13.55;100.00
49841;BME280;35738;49.890;5.930;2023-04-27T11:58:14;95811.44;;;13.54;100.00
49841;BME280;35738;49.890;5.930;2023-04-27T12:00:41;95807.22;;;13.45;100.00
49841;BME280;35738;49.890;5.930;2023-04-27T12:03:08;95799.28;;;12.58;100.00
49841;BME280;35738;49.890;5.930;2023-04-27T12:05:47;95803.69;;;12.71;100.00
49841;BME280;35738;49.890;5.930;2023-04-27T12:08:15;95803.19;;;12.57;100.00
49841;BME280;35738;49.890;5.930;2023-04-27T12:10:43;95798.16;;;13.20;100.00
49841;BME280;35738;49.890;5.930;2023-04-27T12:13:10;95790.41;;;13.13;100.00
49841;BME280;35738;49.890;5.930;2023-04-27T12:15:37;95793.44;;;12.71;100.00
49841;BME280;35738;49.890;5.930;2023-04-27T12:18:05;95796.09;;;12.68;100.00
49841;BME280;35738;49.890;5.930;2023-04-27T12:20:33;95799.88;;;13.00;100.00
49841;BME280;35738;49.890;5.930;2023-04-27T12:22:59;95810.22;;;13.27;100.00
49841;BME280;35738;49.890;5.930;2023-04-27T12:25:26;95797.19;;;13.40;100.00
49841;BME280;35738;49.890;5.930;2023-04-27T12:27:53;95794.44;;;13.28;100.00
49841;BME280;35738;49.890;5.930;2023-04-27T12:30:21;95802.63;;;13.24;100.00
49841;BME280;35738;49.890;5.930;2023-04-27T12:32:48;95805.66;;;13.59;100.00
49841;BME280;35738;49.890;5.930;2023-04-27T12:35:15;95806.06;;;13.74;100.00
49841;BME280;35738;49.890;5.930;2023-04-27T12:37:41;95799.84;;;13.77;100.00
49841;BME280;35738;49.890;5.930;2023-04-27T12:40:10;95803.53;;;13.28;100.00
49841;BME280;35738;49.890;5.930;2023-04-27T12:42:37;95796.63;;;13.47;100.00
49841;BME280;35738;49.890;5.930;2023-04-27T12:45:04;95798.34;;;13.27;100.00
49841;BME280;35738;49.890;5.930;2023-04-27T12:47:32;95794.81;;;12.90;100.00
49841;BME280;35738;49.890;5.930;2023-04-27T12:50:20;95805.69;;;13.35;100.00
49841;BME280;35738;49.890;5.930;2023-04-27T12:52:46;95803.41;;;13.77;100.00
49841;BME280;35738;49.890;5.930;2023-04-27T12:55:13;95805.25;;;13.33;100.00
49841;BME280;35738;49.890;5.930;2023-04-27T12:57:58;95805.78;;;13.63;100.00
49841;BME280;35738;49.890;5.930;2023-04-27T13:00:24;95802.50;;;14.01;100.00
49841;BME280;35738;49.890;5.930;2023-04-27T13:02:51;95801.41;;;14.18;100.00
49841;BME280;35738;49.890;5.930;2023-04-27T13:05:19;95799.19;;;13.95;100.00
49841;BME280;35738;49.890;5.930;2023-04-27T13:07:47;95801.41;;;13.90;100.00
49841;BME280;35738;49.890;5.930;2023-04-27T13:10:13;95804.53;;;14.16;100.00
49841;BME280;35738;49.890;5.930;2023-04-27T13:12:40;95812.66;;;14.25;100.00
49841;BME280;35738;49.890;5.930;2023-04-27T13:15:07;95808.75;;;14.42;100.00
49841;BME280;35738;49.890;5.930;2023-04-27T13:17:34;95804.41;;;14.56;100.00
49841;BME280;35738;49.890;5.930;2023-04-27T13:20:01;95801.63;;;14.56;100.00
49841;BME280;35738;49.890;5.930;2023-04-27T13:22:27;95796.47;;;14.71;100.00
49841;BME280;35738;49.890;5.930;2023-04-27T13:24:54;95795.16;;;14.37;100.00
49841;BME280;35738;49.890;5.930;2023-04-27T13:27:20;95792.19;;;13.86;100.00
49841;BME280;35738;49.890;5.930;2023-04-27T13:29:50;95797.63;;;13.82;100.00
49841;BME280;35738;49.890;5.930;2023-04-27T13:32:17;95795.63;;;13.95;100.00
49841;BME280;35738;49.890;5.930;2023-04-27T13:34:44;95782.13;;;14.21;100.00
49841;BME280;35738;49.890;5.930;2023-04-27T13:37:10;95779.69;;;14.48;100.00
49841;BME280;35738;49.890;5.930;2023-04-27T13:39:38;95773.38;;;14.19;100.00
49841;BME280;35738;49.890;5.930;2023-04-27T13:42:05;95778.47;;;14.33;100.00
49841;BME280;35738;49.890;5.930;2023-04-27T13:44:31;95777.34;;;14.81;100.00
49841;BME280;35738;49.890;5.930;2023-04-27T13:46:58;95757.19;;;15.16;100.00
49841;BME280;35738;49.890;5.930;2023-04-27T13:49:25;95769.47;;;15.34;100.00